createdAt,value
2017-06-10T00:01:02.563Z,76.30
2017-06-10T00:03:30.039Z,76.30
2017-06-10T00:05:57.523Z,76.30
2017-06-10T00:08:25.001Z,76.40
2017-06-10T00:10:52.493Z,76.40
2017-06-10T00:13:19.959Z,76.50
2017-06-10T00:15:47.737Z,76.60
2017-06-10T00:18:15.208Z,76.60
2017-06-10T00:20:43.106Z,76.60
2017-06-10T00:23:10.611Z,76.60
2017-06-10T00:25:38.110Z,76.80
2017-06-10T00:28:06.094Z,76.80
2017-06-10T00:30:33.649Z,76.80
2017-06-10T00:33:01.127Z,76.80
2017-06-10T00:35:28.672Z,76.60
2017-06-10T00:37:56.178Z,76.20
2017-06-10T00:40:23.661Z,76.10
2017-06-10T00:42:52.211Z,76.20
2017-06-10T00:45:19.713Z,76.10
2017-06-10T00:47:47.220Z,76.00
2017-06-10T00:50:14.684Z,75.90
2017-06-10T00:52:42.235Z,75.80
2017-06-10T00:55:09.744Z,76.00
2017-06-10T00:57:37.236Z,76.10
2017-06-10T01:00:04.765Z,75.60
2017-06-10T01:02:32.248Z,75.70
2017-06-10T01:05:00.966Z,76.00
2017-06-10T01:07:29.167Z,76.00
2017-06-10T01:09:57.136Z,76.00
2017-06-10T01:12:24.664Z,76.10
2017-06-10T01:14:52.915Z,76.30
2017-06-10T01:17:20.425Z,76.00
2017-06-10T01:19:47.902Z,76.30
2017-06-10T01:22:15.407Z,76.60
2017-06-10T01:24:42.886Z,76.90
2017-06-10T01:27:12.140Z,77.10
2017-06-10T01:29:39.628Z,76.90
2017-06-10T01:32:07.108Z,76.90
2017-06-10T01:34:34.620Z,76.90
2017-06-10T01:37:02.100Z,76.80
2017-06-10T01:39:29.595Z,76.80
2017-06-10T01:41:57.101Z,76.80
2017-06-10T01:44:24.588Z,76.50
2017-06-10T01:46:52.052Z,76.30
2017-06-10T01:49:19.588Z,76.20
2017-06-10T01:51:47.101Z,76.40
2017-06-10T01:54:14.631Z,76.40
2017-06-10T01:56:42.104Z,76.30
2017-06-10T01:59:09.612Z,76.30
2017-06-10T02:01:37.187Z,76.30
2017-06-10T02:04:04.760Z,76.10
2017-06-10T02:06:32.659Z,76.10
2017-06-10T02:09:00.212Z,76.10
2017-06-10T02:11:27.711Z,75.90
2017-06-10T02:13:55.250Z,75.80
2017-06-10T02:16:22.729Z,75.60
2017-06-10T02:18:51.055Z,75.70
2017-06-10T02:21:18.562Z,75.90
2017-06-10T02:23:46.101Z,75.90
2017-06-10T02:26:13.696Z,75.90
2017-06-10T02:28:41.242Z,75.90
2017-06-10T02:31:08.751Z,75.80
2017-06-10T02:33:36.278Z,75.90
2017-06-10T02:36:03.775Z,75.90
2017-06-10T02:38:31.307Z,76.10
2017-06-10T02:40:58.905Z,76.10
2017-06-10T02:43:26.398Z,76.10
2017-06-10T02:45:54.323Z,76.10
2017-06-10T02:48:21.803Z,76.10
2017-06-10T02:50:49.355Z,76.30
2017-06-10T02:53:16.866Z,76.20
2017-06-10T02:55:44.792Z,76.00
2017-06-10T02:58:12.320Z,76.00
2017-06-10T03:00:40.888Z,75.90
2017-06-10T03:03:08.529Z,75.50
2017-06-10T03:05:36.129Z,75.60
2017-06-10T03:08:03.638Z,75.40
2017-06-10T03:10:31.141Z,75.30
2017-06-10T03:12:58.802Z,75.20
2017-06-10T03:15:26.309Z,75.20
2017-06-10T03:17:53.798Z,75.10
2017-06-10T03:20:21.391Z,75.20
2017-06-10T03:22:48.921Z,75.20
2017-06-10T03:25:16.446Z,75.30
2017-06-10T03:27:44.746Z,75.20
2017-06-10T03:30:12.304Z,75.10
2017-06-10T03:32:39.812Z,74.60
2017-06-10T03:35:07.349Z,74.40
2017-06-10T03:37:35.277Z,74.60
2017-06-10T03:40:02.807Z,73.80
2017-06-10T03:42:30.334Z,74.10
2017-06-10T03:44:57.949Z,74.50
2017-06-10T03:47:25.499Z,74.50
2017-06-10T03:49:52.937Z,74.30
2017-06-10T03:52:20.451Z,74.80
2017-06-10T03:54:47.981Z,75.00
2017-06-10T03:57:15.562Z,74.90
2017-06-10T03:59:43.060Z,74.90
2017-06-10T04:02:10.621Z,74.90
2017-06-10T04:04:38.184Z,75.10
2017-06-10T04:07:05.684Z,75.20
2017-06-10T04:09:33.187Z,75.20
2017-06-10T04:12:00.727Z,75.30
2017-06-10T04:14:28.360Z,75.50
2017-06-10T04:16:56.023Z,75.60
2017-06-10T04:19:25.010Z,75.70
2017-06-10T04:21:52.525Z,75.80
2017-06-10T04:24:20.046Z,75.80
2017-06-10T04:26:47.583Z,75.90
2017-06-10T04:29:15.086Z,75.80
2017-06-10T04:31:42.704Z,76.00
2017-06-10T04:34:10.720Z,76.10
2017-06-10T04:36:38.237Z,76.10
2017-06-10T04:39:06.196Z,76.40
2017-06-10T04:41:33.730Z,76.40
2017-06-10T04:44:01.243Z,76.50
2017-06-10T04:46:28.799Z,76.60
2017-06-10T04:48:56.359Z,76.60
2017-06-10T04:51:23.886Z,76.50
2017-06-10T04:53:51.387Z,76.50
2017-06-10T04:56:19.488Z,76.50
2017-06-10T04:58:47.027Z,76.30
2017-06-10T05:01:14.663Z,76.00
2017-06-10T05:03:42.179Z,75.90
2017-06-10T05:06:09.764Z,76.00
2017-06-10T05:08:37.300Z,76.30
2017-06-10T05:11:04.804Z,76.50
2017-06-10T05:13:32.285Z,76.20
2017-06-10T05:15:59.839Z,76.20
2017-06-10T05:18:27.363Z,75.60
2017-06-10T05:20:54.873Z,75.60
2017-06-10T05:23:22.445Z,75.10
2017-06-10T05:25:49.935Z,75.20
2017-06-10T05:28:17.441Z,75.40
2017-06-10T05:30:44.997Z,75.20
2017-06-10T05:33:12.529Z,75.20
2017-06-10T05:35:40.678Z,74.70
2017-06-10T05:38:08.244Z,73.60
2017-06-10T05:40:35.750Z,72.70
2017-06-10T05:43:03.303Z,73.00
2017-06-10T05:45:30.904Z,73.40
2017-06-10T05:47:58.372Z,73.40
2017-06-10T05:50:25.886Z,73.10
2017-06-10T05:52:53.803Z,72.20
2017-06-10T05:55:21.351Z,72.20
2017-06-10T05:57:49.244Z,71.40
2017-06-10T06:00:16.817Z,72.00
2017-06-10T06:02:44.256Z,71.80
2017-06-10T06:05:11.779Z,72.00
2017-06-10T06:07:39.328Z,71.30
2017-06-10T06:10:06.833Z,71.20
2017-06-10T06:12:35.198Z,70.80
2017-06-10T06:15:03.129Z,71.00
2017-06-10T06:17:30.664Z,71.00
2017-06-10T06:19:58.255Z,70.70
2017-06-10T06:22:25.782Z,70.00
2017-06-10T06:24:53.286Z,68.50
2017-06-10T06:27:20.796Z,69.10
2017-06-10T06:29:48.359Z,69.30
2017-06-10T06:32:16.384Z,68.90
2017-06-10T06:34:44.100Z,68.90
2017-06-10T06:37:11.646Z,68.80
2017-06-10T06:39:39.224Z,69.10
2017-06-10T06:42:06.721Z,69.20
2017-06-10T06:44:34.293Z,69.00
2017-06-10T06:47:01.800Z,69.00
2017-06-10T06:49:29.335Z,68.40
2017-06-10T06:51:56.958Z,68.50
2017-06-10T06:54:24.490Z,68.40
2017-06-10T06:56:52.091Z,68.10
2017-06-10T06:59:19.586Z,68.00
2017-06-10T07:01:47.105Z,67.70
2017-06-10T07:04:15.029Z,67.00
2017-06-10T07:06:42.543Z,67.00
2017-06-10T07:09:10.042Z,65.90
2017-06-10T07:11:37.574Z,65.50
2017-06-10T07:14:06.282Z,66.00
2017-06-10T07:16:34.096Z,65.70
2017-06-10T07:19:01.820Z,65.50
2017-06-10T07:21:29.393Z,65.30
2017-06-10T07:23:56.931Z,65.30
2017-06-10T07:26:24.435Z,65.00
2017-06-10T07:28:51.961Z,64.20
2017-06-10T07:31:19.456Z,64.10
2017-06-10T07:33:46.965Z,63.30
2017-06-10T07:36:14.871Z,62.30
2017-06-10T07:38:42.386Z,62.30
2017-06-10T07:41:09.901Z,63.40
2017-06-10T07:43:37.349Z,62.80
2017-06-10T07:46:04.878Z,62.60
2017-06-10T07:48:32.425Z,61.10
2017-06-10T07:51:00.451Z,60.90
2017-06-10T07:53:28.420Z,60.90
2017-06-10T07:55:55.962Z,60.90
2017-06-10T07:58:23.443Z,60.70
2017-06-10T08:00:51.012Z,60.70
2017-06-10T08:03:18.519Z,60.60
2017-06-10T08:05:46.034Z,59.90
2017-06-10T08:08:14.028Z,58.90
2017-06-10T08:10:41.496Z,58.90
2017-06-10T08:13:09.016Z,58.90
2017-06-10T08:15:36.571Z,59.00
2017-06-10T08:18:04.111Z,59.00
2017-06-10T08:20:31.627Z,58.50
2017-06-10T08:22:59.539Z,58.40
2017-06-10T08:25:27.065Z,58.40
2017-06-10T08:27:54.575Z,57.50
2017-06-10T08:30:22.110Z,57.70
2017-06-10T08:32:49.622Z,57.60
2017-06-10T08:35:17.175Z,56.60
2017-06-10T08:37:44.698Z,56.50
2017-06-10T08:40:12.253Z,55.50
2017-06-10T08:42:39.827Z,54.20
2017-06-10T08:45:07.323Z,54.20
2017-06-10T08:47:34.816Z,53.90
2017-06-10T08:50:02.323Z,53.70
2017-06-10T08:52:29.867Z,53.70
2017-06-10T08:54:57.353Z,53.00
2017-06-10T08:57:24.910Z,52.80
2017-06-10T08:59:52.384Z,52.70
2017-06-10T09:02:20.011Z,54.40
2017-06-10T09:04:47.528Z,54.00
2017-06-10T09:07:15.395Z,54.10
2017-06-10T09:09:42.866Z,55.20
2017-06-10T09:12:10.496Z,53.80
2017-06-10T09:14:38.035Z,53.10
2017-06-10T09:17:06.132Z,52.70
2017-06-10T09:19:33.688Z,52.70
2017-06-10T09:22:01.472Z,52.70
2017-06-10T09:24:29.250Z,52.40
2017-06-10T09:26:57.005Z,52.40
2017-06-10T09:29:24.784Z,51.60
2017-06-10T09:31:52.355Z,51.30
2017-06-10T09:34:20.085Z,50.20
2017-06-10T09:36:48.745Z,49.80
2017-06-10T09:39:16.365Z,49.00
2017-06-10T09:41:43.980Z,48.40
2017-06-10T09:44:11.471Z,48.40
2017-06-10T09:46:39.016Z,47.80
2017-06-10T09:49:06.513Z,47.00
2017-06-10T09:51:34.060Z,46.20
2017-06-10T09:54:01.937Z,44.60
2017-06-10T09:56:29.831Z,44.30
2017-06-10T09:58:57.348Z,44.30
2017-06-10T10:01:24.910Z,44.90
2017-06-10T10:03:52.447Z,45.80
2017-06-10T10:06:19.952Z,45.40
2017-06-10T10:08:47.889Z,46.80
2017-06-10T10:11:15.388Z,46.80
2017-06-10T10:13:42.905Z,47.10
2017-06-10T10:16:10.405Z,47.30
2017-06-10T10:18:38.495Z,46.70
2017-06-10T10:21:06.010Z,46.70
2017-06-10T10:23:33.481Z,46.90
2017-06-10T10:26:00.977Z,46.40
2017-06-10T10:28:28.907Z,47.40
2017-06-10T10:30:56.422Z,47.40
2017-06-10T10:33:24.332Z,48.20
2017-06-10T10:35:51.968Z,48.20
2017-06-10T10:38:21.303Z,48.50
2017-06-10T10:40:48.781Z,49.60
2017-06-10T10:43:16.939Z,49.30
2017-06-10T10:45:44.446Z,49.10
2017-06-10T10:48:11.983Z,49.50
2017-06-10T10:50:39.603Z,48.90
2017-06-10T10:53:07.132Z,49.00
2017-06-10T10:55:34.626Z,49.30
2017-06-10T10:58:02.139Z,50.00
2017-06-10T11:00:29.643Z,50.20
2017-06-10T11:02:57.540Z,49.40
2017-06-10T11:05:25.030Z,49.40
2017-06-10T11:07:52.550Z,49.50
2017-06-10T11:10:20.042Z,49.80
2017-06-10T11:12:47.546Z,49.80
2017-06-10T11:15:15.100Z,50.00
2017-06-10T11:17:42.991Z,49.70
2017-06-10T11:20:10.511Z,49.40
2017-06-10T11:22:38.003Z,49.40
2017-06-10T11:25:05.487Z,49.80
2017-06-10T11:27:33.037Z,49.20
2017-06-10T11:30:00.592Z,49.50
2017-06-10T11:32:28.085Z,49.40
2017-06-10T11:34:55.533Z,48.20
2017-06-10T11:37:23.035Z,47.90
2017-06-10T11:39:50.522Z,48.40
2017-06-10T11:42:18.027Z,48.40
2017-06-10T11:44:45.513Z,47.80
2017-06-10T11:47:13.409Z,47.00
2017-06-10T11:49:40.936Z,47.70
2017-06-10T11:52:08.421Z,48.50
2017-06-10T11:54:35.956Z,49.30
2017-06-10T11:57:03.860Z,47.10
2017-06-10T11:59:31.382Z,47.10
2017-06-10T12:01:58.881Z,47.30
2017-06-10T12:04:26.369Z,45.80
2017-06-10T12:06:53.890Z,46.20
2017-06-10T12:09:21.542Z,46.30
2017-06-10T12:11:49.463Z,46.20
2017-06-10T12:14:16.985Z,46.20
2017-06-10T12:16:44.925Z,46.90
2017-06-10T12:19:12.398Z,47.00
2017-06-10T12:21:39.892Z,45.50
2017-06-10T12:24:07.436Z,45.10
2017-06-10T12:26:35.270Z,45.70
2017-06-10T12:29:03.931Z,45.10
2017-06-10T12:31:31.465Z,46.00
2017-06-10T12:33:58.965Z,46.50
2017-06-10T12:36:26.431Z,46.40
2017-06-10T12:38:54.357Z,46.10
2017-06-10T12:41:22.282Z,46.70
2017-06-10T12:43:49.755Z,46.70
2017-06-10T12:46:17.316Z,45.60
2017-06-10T12:48:44.824Z,45.80
2017-06-10T12:51:12.767Z,46.00
2017-06-10T12:53:40.268Z,45.90
2017-06-10T12:56:07.774Z,46.40
2017-06-10T12:58:35.242Z,46.40
2017-06-10T13:01:02.752Z,46.40
2017-06-10T13:03:30.291Z,46.60
2017-06-10T13:05:58.330Z,45.80
2017-06-10T13:08:25.794Z,45.10
2017-06-10T13:10:53.295Z,44.80
2017-06-10T13:13:20.795Z,45.30
2017-06-10T13:15:48.276Z,45.80
2017-06-10T13:18:15.802Z,45.70
2017-06-10T13:20:43.302Z,45.50
2017-06-10T13:23:10.860Z,46.30
2017-06-10T13:25:38.355Z,45.20
2017-06-10T13:28:05.844Z,46.00
2017-06-10T13:30:33.349Z,45.70
2017-06-10T13:33:01.884Z,46.00
2017-06-10T13:35:29.419Z,45.70
2017-06-10T13:37:56.988Z,46.20
2017-06-10T13:40:24.508Z,47.40
2017-06-10T13:42:52.005Z,46.60
2017-06-10T13:45:19.612Z,46.60
2017-06-10T13:47:47.542Z,47.90
2017-06-10T13:50:15.079Z,47.90
2017-06-10T13:52:42.603Z,47.60
2017-06-10T13:55:10.133Z,47.10
2017-06-10T13:57:37.657Z,47.00
2017-06-10T14:00:05.175Z,47.10
2017-06-10T14:02:32.688Z,46.90
2017-06-10T14:05:00.190Z,47.30
2017-06-10T14:07:27.749Z,46.90
2017-06-10T14:09:55.274Z,46.40
2017-06-10T14:12:23.194Z,45.90
2017-06-10T14:14:51.072Z,45.90
2017-06-10T14:17:18.558Z,46.70
2017-06-10T14:19:46.095Z,47.40
2017-06-10T14:22:13.611Z,48.40
2017-06-10T14:24:41.128Z,46.80
2017-06-10T14:27:08.613Z,46.80
2017-06-10T14:29:36.102Z,47.20
2017-06-10T14:32:03.597Z,45.50
2017-06-10T14:34:31.120Z,47.30
2017-06-10T14:36:58.617Z,46.70
2017-06-10T14:39:26.154Z,46.30
2017-06-10T14:41:53.667Z,46.10
2017-06-10T14:44:21.158Z,46.00
2017-06-10T14:46:49.036Z,46.00
2017-06-10T14:49:17.555Z,45.30
2017-06-10T14:51:45.143Z,45.30
2017-06-10T14:54:12.592Z,45.80
2017-06-10T14:56:40.095Z,45.80
2017-06-10T14:59:07.576Z,45.80
2017-06-10T15:01:35.476Z,45.80
2017-06-10T15:04:03.035Z,45.80
2017-06-10T15:06:30.549Z,46.60
2017-06-10T15:08:58.344Z,46.30
2017-06-10T15:11:26.269Z,44.80
2017-06-10T15:13:53.983Z,44.80
2017-06-10T15:16:21.901Z,46.50
2017-06-10T15:18:52.156Z,46.60
2017-06-10T15:21:19.664Z,46.00
2017-06-10T15:23:47.595Z,44.80
2017-06-10T15:26:15.163Z,44.60
2017-06-10T15:28:42.697Z,44.70
2017-06-10T15:31:10.251Z,44.10
2017-06-10T15:33:37.823Z,44.40
2017-06-10T15:36:05.781Z,43.80
2017-06-10T15:38:33.489Z,44.50
2017-06-10T15:41:01.043Z,44.10
2017-06-10T15:43:28.538Z,43.70
2017-06-10T15:45:56.093Z,42.90
2017-06-10T15:48:23.609Z,42.80
2017-06-10T15:50:51.142Z,42.50
2017-06-10T15:53:18.628Z,43.00
2017-06-10T15:55:46.144Z,43.30
2017-06-10T15:58:14.018Z,43.90
2017-06-10T16:00:41.564Z,43.90
2017-06-10T16:03:09.598Z,43.50
2017-06-10T16:05:37.505Z,43.50
2017-06-10T16:08:05.028Z,44.30
2017-06-10T16:10:32.674Z,44.30
2017-06-10T16:13:00.670Z,44.00
2017-06-10T16:15:28.185Z,44.00
2017-06-10T16:17:55.725Z,43.50
2017-06-10T16:20:23.236Z,43.70
2017-06-10T16:22:51.143Z,43.30
2017-06-10T16:25:18.641Z,43.30
2017-06-10T16:27:46.249Z,43.30
2017-06-10T16:30:13.772Z,43.10
2017-06-10T16:32:41.272Z,42.90
2017-06-10T16:35:09.344Z,43.50
2017-06-10T16:37:36.861Z,43.50
2017-06-10T16:40:04.362Z,44.30
2017-06-10T16:42:31.846Z,44.80
2017-06-10T16:44:59.386Z,45.60
2017-06-10T16:47:26.854Z,45.00
2017-06-10T16:49:54.799Z,43.70
2017-06-10T16:52:22.346Z,43.70
2017-06-10T16:54:49.830Z,43.90
2017-06-10T16:57:17.785Z,44.60
2017-06-10T16:59:45.394Z,45.10
2017-06-10T17:02:13.302Z,44.40
2017-06-10T17:04:40.813Z,44.50
2017-06-10T17:07:08.350Z,44.50
2017-06-10T17:09:35.793Z,43.80
2017-06-10T17:12:03.306Z,43.90
2017-06-10T17:14:30.817Z,44.30
2017-06-10T17:16:58.388Z,44.10
2017-06-10T17:19:25.893Z,44.30
2017-06-10T17:21:53.395Z,44.50
2017-06-10T17:24:20.933Z,44.10
2017-06-10T17:26:48.829Z,44.30
2017-06-10T17:29:16.340Z,44.30
2017-06-10T17:31:43.891Z,44.50
2017-06-10T17:34:11.383Z,44.30
2017-06-10T17:36:38.880Z,43.80
2017-06-10T17:39:06.411Z,44.30
2017-06-10T17:41:33.909Z,44.30
2017-06-10T17:44:01.422Z,44.20
2017-06-10T17:46:28.974Z,44.30
2017-06-10T17:48:56.575Z,44.00
2017-06-10T17:51:24.521Z,44.00
2017-06-10T17:53:52.012Z,44.00
2017-06-10T17:56:19.923Z,45.10
2017-06-10T17:58:48.416Z,45.10
2017-06-10T18:01:15.969Z,45.60
2017-06-10T18:03:43.465Z,45.10
2017-06-10T18:06:11.018Z,44.50
2017-06-10T18:08:38.523Z,44.90
2017-06-10T18:11:06.017Z,45.20
2017-06-10T18:13:33.518Z,44.50
2017-06-10T18:16:00.960Z,44.70
2017-06-10T18:18:28.422Z,45.30
2017-06-10T18:20:55.929Z,45.70
2017-06-10T18:23:23.945Z,45.90
2017-06-10T18:26:06.386Z,45.90
2017-06-10T18:28:33.998Z,46.10
2017-06-10T18:31:02.918Z,46.30
2017-06-10T18:33:30.495Z,46.30
2017-06-10T18:35:58.097Z,46.40
2017-06-10T18:38:33.160Z,46.60
2017-06-10T18:41:00.826Z,46.70
2017-06-10T18:43:28.536Z,47.00
2017-06-10T18:45:56.102Z,46.70
2017-06-10T18:48:23.689Z,46.70
2017-06-10T18:50:51.334Z,47.00
2017-06-10T18:53:18.862Z,47.30
2017-06-10T18:55:46.544Z,47.70
2017-06-10T18:58:14.251Z,48.00
2017-06-10T19:00:42.227Z,48.40
2017-06-10T19:03:09.975Z,48.40
2017-06-10T19:05:37.530Z,48.40
2017-06-10T19:08:05.133Z,48.80
2017-06-10T19:10:32.748Z,48.90
2017-06-10T19:13:00.508Z,49.10
2017-06-10T19:15:28.259Z,49.20
2017-06-10T19:17:55.792Z,49.50
2017-06-10T19:20:23.392Z,49.50
2017-06-10T19:22:50.926Z,49.70
2017-06-10T19:25:18.465Z,49.80
2017-06-10T19:27:45.982Z,50.00
2017-06-10T19:30:13.933Z,50.10
2017-06-10T19:32:41.379Z,50.40
2017-06-10T19:35:08.853Z,50.50
2017-06-10T19:37:36.565Z,50.70
2017-06-10T19:40:04.218Z,51.10
2017-06-10T19:42:31.915Z,51.50
2017-06-10T19:44:59.661Z,52.00
2017-06-10T19:47:27.764Z,52.30
2017-06-10T19:49:55.949Z,52.50
2017-06-10T19:52:23.690Z,52.80
2017-06-10T19:54:51.301Z,53.10
2017-06-10T19:57:18.829Z,53.30
2017-06-10T19:59:46.889Z,53.40
2017-06-10T20:02:14.633Z,54.00
2017-06-10T20:04:42.484Z,54.40
2017-06-10T20:07:09.978Z,54.40
2017-06-10T20:09:37.875Z,54.50
2017-06-10T20:12:07.347Z,54.50
2017-06-10T20:14:35.144Z,54.20
2017-06-10T20:17:02.796Z,55.00
2017-06-10T20:19:30.457Z,55.00
2017-06-10T20:21:58.070Z,54.70
2017-06-10T20:24:25.840Z,55.20
2017-06-10T20:26:53.924Z,55.00
2017-06-10T20:29:21.645Z,55.20
2017-06-10T20:31:49.439Z,55.30
2017-06-10T20:34:17.622Z,55.60
2017-06-10T20:36:45.184Z,55.60
2017-06-10T20:39:12.727Z,55.60
2017-06-10T20:41:40.414Z,55.90
2017-06-10T20:44:08.419Z,55.90
2017-06-10T20:46:35.940Z,55.80
2017-06-10T20:49:03.414Z,55.40
2017-06-10T20:51:30.971Z,56.00
2017-06-10T20:53:59.495Z,56.20
2017-06-10T20:56:27.000Z,56.30
2017-06-10T20:58:54.519Z,56.20
2017-06-10T21:01:22.028Z,56.30
2017-06-10T21:03:49.576Z,56.60
2017-06-10T21:06:17.461Z,56.60
2017-06-10T21:08:44.985Z,56.60
2017-06-10T21:11:12.506Z,56.50
2017-06-10T21:13:40.072Z,56.40
2017-06-10T21:16:07.564Z,56.50
2017-06-10T21:18:35.094Z,56.50
2017-06-10T21:21:02.630Z,56.70
2017-06-10T21:23:30.581Z,57.30
2017-06-10T21:25:58.090Z,57.30
2017-06-10T21:28:25.628Z,57.50
2017-06-10T21:30:53.149Z,57.90
2017-06-10T21:33:20.666Z,58.00
2017-06-10T21:35:48.192Z,57.90
2017-06-10T21:38:15.729Z,58.30
2017-06-10T21:40:43.259Z,58.40
2017-06-10T21:43:10.781Z,58.70
2017-06-10T21:45:38.376Z,59.20
2017-06-10T21:48:06.083Z,59.40
2017-06-10T21:50:33.690Z,59.50
2017-06-10T21:53:01.230Z,59.40
2017-06-10T21:55:28.723Z,59.60
2017-06-10T21:57:56.279Z,60.00
2017-06-10T22:00:23.803Z,59.90
2017-06-10T22:02:51.751Z,59.80
2017-06-10T22:05:19.290Z,60.30
2017-06-10T22:07:47.289Z,60.20
2017-06-10T22:10:14.792Z,60.20
2017-06-10T22:12:42.550Z,60.40
2017-06-10T22:15:10.091Z,61.00
2017-06-10T22:17:37.580Z,61.10
2017-06-10T22:20:05.113Z,61.30
2017-06-10T22:22:32.592Z,61.30
2017-06-10T22:25:00.071Z,61.60
2017-06-10T22:27:27.537Z,61.60
2017-06-10T22:29:55.044Z,61.80
2017-06-10T22:32:23.025Z,62.20
2017-06-10T22:34:50.547Z,62.20
2017-06-10T22:37:18.052Z,62.30
2017-06-10T22:39:46.048Z,62.80
2017-06-10T22:42:13.566Z,62.80
2017-06-10T22:44:41.389Z,63.10
2017-06-10T22:47:08.924Z,63.10
2017-06-10T22:49:36.816Z,63.40
2017-06-10T22:52:04.319Z,63.40
2017-06-10T22:54:31.829Z,63.60
2017-06-10T22:56:59.327Z,63.60
2017-06-10T22:59:27.382Z,63.80
2017-06-10T23:01:54.855Z,63.90
2017-06-10T23:04:22.351Z,63.90
2017-06-10T23:06:49.833Z,64.20
2017-06-10T23:09:17.772Z,64.30
2017-06-10T23:11:45.279Z,64.30
2017-06-10T23:14:13.177Z,64.40
2017-06-10T23:16:41.062Z,64.40
2017-06-10T23:19:08.558Z,64.80
2017-06-10T23:21:36.046Z,65.00
2017-06-10T23:24:03.937Z,65.30
2017-06-10T23:26:31.476Z,65.30
2017-06-10T23:28:59.413Z,65.20
2017-06-10T23:31:26.928Z,65.20
2017-06-10T23:33:54.435Z,65.40
2017-06-10T23:36:21.951Z,65.50
2017-06-10T23:38:49.569Z,65.60
2017-06-10T23:41:17.083Z,65.70
2017-06-10T23:43:44.989Z,65.80
2017-06-10T23:46:13.967Z,65.80
2017-06-10T23:48:41.510Z,65.80
2017-06-10T23:51:08.981Z,65.90
2017-06-10T23:53:36.509Z,66.00
2017-06-10T23:56:04.025Z,66.00
2017-06-10T23:58:31.549Z,66.20
